Thomas Junction, Idaho
Current Conditions -  °F | °C
As of 4:53 AM on Sunday 25 Jan 2015 (Local Time) from KIDA Reporting Station
Haze Haze  
Wind Chill: 19°   Ceiling: 300
Heat Index: 27°   Visibility: 2mi
Dew Point: 25°   Wind: 8mph
Humidity: 92%   Direction: 360°N
Pressure: 30.45"   Gusts: NA
Location:  43.2718°N, 112.405°W
Report Text: KIDA 251153Z 36007KT 2SM BR OVC003 M03/M04 A3045 RMK AO2 SLP347 I1002 I6002 T10281039 11028 21028 53000
Loading
Personal Weather Stations






























Interactive Weather Map New forecast layout! Learn more

10-Day Weather Forecast

Advertisements
Track Severe Weather on mobile